sensor_id;sensor_type;location;lat;lon;timestamp;temperature;humidity
37204;DHT22;23098;48.054;10.636;2024-01-15T00:01:42;0.60;99.90
37204;DHT22;23098;48.054;10.636;2024-01-15T00:04:08;0.50;99.90
37204;DHT22;23098;48.054;10.636;2024-01-15T00:06:34;0.50;99.90
37204;DHT22;23098;48.054;10.636;2024-01-15T00:08:59;0.50;99.90
37204;DHT22;23098;48.054;10.636;2024-01-15T00:11:25;0.40;99.90
37204;DHT22;23098;48.054;10.636;2024-01-15T00:13:50;0.40;99.90
37204;DHT22;23098;48.054;10.636;2024-01-15T00:16:16;0.30;99.90
37204;DHT22;23098;48.054;10.636;2024-01-15T00:18:41;0.40;99.90
37204;DHT22;23098;48.054;10.636;2024-01-15T00:21:07;0.30;99.90
37204;DHT22;23098;48.054;10.636;2024-01-15T00:23:32;0.20;99.90
37204;DHT22;23098;48.054;10.636;2024-01-15T00:25:58;0.10;99.90
37204;DHT22;23098;48.054;10.636;2024-01-15T00:28:23;0.10;99.90
37204;DHT22;23098;48.054;10.636;2024-01-15T00:30:49;0.00;99.90
37204;DHT22;23098;48.054;10.636;2024-01-15T00:33:14;-0.10;99.90
37204;DHT22;23098;48.054;10.636;2024-01-15T00:35:40;-0.20;99.90
37204;DHT22;23098;48.054;10.636;2024-01-15T00:38:06;-0.20;99.90
37204;DHT22;23098;48.054;10.636;2024-01-15T00:40:31;-0.20;99.90
37204;DHT22;23098;48.054;10.636;2024-01-15T00:42:57;-0.30;99.90
37204;DHT22;23098;48.054;10.636;2024-01-15T00:45:22;-0.40;99.90
37204;DHT22;23098;48.054;10.636;2024-01-15T00:47:48;-0.50;99.90
37204;DHT22;23098;48.054;10.636;2024-01-15T00:50:14;-0.80;99.90
37204;DHT22;23098;48.054;10.636;2024-01-15T00:52:40;-0.90;99.90
37204;DHT22;23098;48.054;10.636;2024-01-15T00:55:06;-0.90;99.90
37204;DHT22;23098;48.054;10.636;2024-01-15T00:57:31;-1.10;99.90
37204;DHT22;23098;48.054;10.636;2024-01-15T00:59:58;-1.10;99.90
37204;DHT22;23098;48.054;10.636;2024-01-15T01:02:23;-1.10;99.90
37204;DHT22;23098;48.054;10.636;2024-01-15T01:04:49;-1.10;99.90
37204;DHT22;23098;48.054;10.636;2024-01-15T01:07:14;-1.20;99.90
37204;DHT22;23098;48.054;10.636;2024-01-15T01:09:40;-1.30;99.90
37204;DHT22;23098;48.054;10.636;2024-01-15T01:12:06;-1.30;99.90
37204;DHT22;23098;48.054;10.636;2024-01-15T01:14:32;-1.30;99.90
37204;DHT22;23098;48.054;10.636;2024-01-15T01:16:57;-1.40;99.90
37204;DHT22;23098;48.054;10.636;2024-01-15T01:19:23;-1.40;99.90
37204;DHT22;23098;48.054;10.636;2024-01-15T01:21:50;-1.40;99.90
37204;DHT22;23098;48.054;10.636;2024-01-15T01:24:16;-1.40;99.90
37204;DHT22;23098;48.054;10.636;2024-01-15T01:26:42;-1.40;99.90
37204;DHT22;23098;48.054;10.636;2024-01-15T01:29:07;-1.50;99.90
37204;DHT22;23098;48.054;10.636;2024-01-15T01:31:33;-1.50;99.90
37204;DHT22;23098;48.054;10.636;2024-01-15T01:33:59;-1.50;99.90
37204;DHT22;23098;48.054;10.636;2024-01-15T01:36:24;-1.50;99.90
37204;DHT22;23098;48.054;10.636;2024-01-15T01:38:50;-1.60;99.90
37204;DHT22;23098;48.054;10.636;2024-01-15T01:41:15;-1.60;99.90
37204;DHT22;23098;48.054;10.636;2024-01-15T01:43:41;-1.60;99.90
37204;DHT22;23098;48.054;10.636;2024-01-15T01:46:06;-1.60;99.90
37204;DHT22;23098;48.054;10.636;2024-01-15T01:48:32;-1.60;99.90
37204;DHT22;23098;48.054;10.636;2024-01-15T01:51:01;-1.70;99.90
37204;DHT22;23098;48.054;10.636;2024-01-15T01:53:29;-1.70;99.90
37204;DHT22;23098;48.054;10.636;2024-01-15T01:55:56;-1.70;99.90
37204;DHT22;23098;48.054;10.636;2024-01-15T01:58:22;-1.80;99.90
37204;DHT22;23098;48.054;10.636;2024-01-15T02:00:48;-1.80;99.90
37204;DHT22;23098;48.054;10.636;2024-01-15T02:03:14;-1.70;99.90
37204;DHT22;23098;48.054;10.636;2024-01-15T02:05:43;-1.80;99.90
37204;DHT22;23098;48.054;10.636;2024-01-15T02:08:09;-1.80;99.90
37204;DHT22;23098;48.054;10.636;2024-01-15T02:10:35;-1.80;99.90
37204;DHT22;23098;48.054;10.636;2024-01-15T02:13:01;-1.90;99.90
37204;DHT22;23098;48.054;10.636;2024-01-15T02:15:26;-1.90;99.90
37204;DHT22;23098;48.054;10.636;2024-01-15T02:17:59;-1.90;99.90
37204;DHT22;23098;48.054;10.636;2024-01-15T02:20:25;-1.90;99.90
37204;DHT22;23098;48.054;10.636;2024-01-15T02:22:51;-1.80;99.90
37204;DHT22;23098;48.054;10.636;2024-01-15T02:25:17;-1.90;99.90
37204;DHT22;23098;48.054;10.636;2024-01-15T02:27:44;-1.90;99.90
37204;DHT22;23098;48.054;10.636;2024-01-15T02:30:11;-1.90;99.90
37204;DHT22;23098;48.054;10.636;2024-01-15T02:32:37;-1.90;99.90
37204;DHT22;23098;48.054;10.636;2024-01-15T02:35:03;-2.00;99.90
37204;DHT22;23098;48.054;10.636;2024-01-15T02:37:29;-2.00;99.90
37204;DHT22;23098;48.054;10.636;2024-01-15T02:39:54;-2.10;99.90
37204;DHT22;23098;48.054;10.636;2024-01-15T02:42:20;-2.10;99.90
37204;DHT22;23098;48.054;10.636;2024-01-15T02:44:45;-2.10;99.90
37204;DHT22;23098;48.054;10.636;2024-01-15T02:47:11;-2.20;99.90
37204;DHT22;23098;48.054;10.636;2024-01-15T02:49:36;-2.20;99.90
37204;DHT22;23098;48.054;10.636;2024-01-15T02:52:02;-2.20;99.90
37204;DHT22;23098;48.054;10.636;2024-01-15T02:54:28;-2.30;99.90
37204;DHT22;23098;48.054;10.636;2024-01-15T02:56:53;-2.30;99.90
37204;DHT22;23098;48.054;10.636;2024-01-15T02:59:19;-2.30;99.90
37204;DHT22;23098;48.054;10.636;2024-01-15T03:01:44;-2.30;99.90
37204;DHT22;23098;48.054;10.636;2024-01-15T03:04:10;-2.30;99.90
37204;DHT22;23098;48.054;10.636;2024-01-15T03:06:35;-2.20;99.90
37204;DHT22;23098;48.054;10.636;2024-01-15T03:09:01;-2.20;99.90
37204;DHT22;23098;48.054;10.636;2024-01-15T03:11:26;-2.20;99.90
37204;DHT22;23098;48.054;10.636;2024-01-15T03:13:52;-2.10;99.90
37204;DHT22;23098;48.054;10.636;2024-01-15T03:16:17;-2.10;99.90
37204;DHT22;23098;48.054;10.636;2024-01-15T03:18:45;-2.10;99.90
37204;DHT22;23098;48.054;10.636;2024-01-15T03:21:10;-2.10;99.90
37204;DHT22;23098;48.054;10.636;2024-01-15T03:23:36;-2.10;99.90
37204;DHT22;23098;48.054;10.636;2024-01-15T03:26:01;-2.00;99.90
37204;DHT22;23098;48.054;10.636;2024-01-15T03:28:27;-2.00;99.90
37204;DHT22;23098;48.054;10.636;2024-01-15T03:30:52;-2.00;99.90
37204;DHT22;23098;48.054;10.636;2024-01-15T03:33:18;-2.00;99.90
37204;DHT22;23098;48.054;10.636;2024-01-15T03:35:43;-2.00;99.90
37204;DHT22;23098;48.054;10.636;2024-01-15T03:38:09;-2.00;99.90
37204;DHT22;23098;48.054;10.636;2024-01-15T03:40:34;-2.00;99.90
37204;DHT22;23098;48.054;10.636;2024-01-15T03:43:00;-2.00;99.90
37204;DHT22;23098;48.054;10.636;2024-01-15T03:45:26;-2.00;99.90
37204;DHT22;23098;48.054;10.636;2024-01-15T03:47:51;-2.00;99.90
37204;DHT22;23098;48.054;10.636;2024-01-15T03:50:17;-1.90;99.90
37204;DHT22;23098;48.054;10.636;2024-01-15T03:52:42;-1.90;99.90
37204;DHT22;23098;48.054;10.636;2024-01-15T03:55:08;-1.90;99.90
37204;DHT22;23098;48.054;10.636;2024-01-15T03:57:33;-1.90;99.90
37204;DHT22;23098;48.054;10.636;2024-01-15T03:59:59;-1.80;99.90
37204;DHT22;23098;48.054;10.636;2024-01-15T04:02:24;-1.80;99.90
37204;DHT22;23098;48.054;10.636;2024-01-15T04:04:50;-1.90;99.90
37204;DHT22;23098;48.054;10.636;2024-01-15T04:07:15;-1.90;99.90
37204;DHT22;23098;48.054;10.636;2024-01-15T04:09:41;-2.00;99.90
37204;DHT22;23098;48.054;10.636;2024-01-15T04:12:06;-2.00;99.90
37204;DHT22;23098;48.054;10.636;2024-01-15T04:14:32;-2.00;99.90
37204;DHT22;23098;48.054;10.636;2024-01-15T04:16:58;-2.10;99.90
37204;DHT22;23098;48.054;10.636;2024-01-15T04:19:23;-2.10;99.90
37204;DHT22;23098;48.054;10.636;2024-01-15T04:21:49;-2.10;99.90
37204;DHT22;23098;48.054;10.636;2024-01-15T04:24:14;-2.10;99.90
37204;DHT22;23098;48.054;10.636;2024-01-15T04:26:40;-2.20;99.90
37204;DHT22;23098;48.054;10.636;2024-01-15T04:29:05;-2.20;99.90
37204;DHT22;23098;48.054;10.636;2024-01-15T04:31:31;-2.10;99.90
37204;DHT22;23098;48.054;10.636;2024-01-15T04:33:56;-2.00;99.90
37204;DHT22;23098;48.054;10.636;2024-01-15T04:36:22;-2.00;99.90
37204;DHT22;23098;48.054;10.636;2024-01-15T04:38:47;-2.00;99.90
37204;DHT22;23098;48.054;10.636;2024-01-15T04:41:13;-2.00;99.90
37204;DHT22;23098;48.054;10.636;2024-01-15T04:43:39;-2.00;99.90
37204;DHT22;23098;48.054;10.636;2024-01-15T04:46:06;-2.00;99.90
37204;DHT22;23098;48.054;10.636;2024-01-15T04:48:32;-1.90;99.90
37204;DHT22;23098;48.054;10.636;2024-01-15T04:50:58;-1.90;99.90
37204;DHT22;23098;48.054;10.636;2024-01-15T04:53:23;-1.90;99.90
37204;DHT22;23098;48.054;10.636;2024-01-15T04:55:49;-1.90;99.90
37204;DHT22;23098;48.054;10.636;2024-01-15T04:58:14;-1.90;99.90
37204;DHT22;23098;48.054;10.636;2024-01-15T05:00:40;-1.90;99.90
37204;DHT22;23098;48.054;10.636;2024-01-15T05:03:05;-1.90;99.90
37204;DHT22;23098;48.054;10.636;2024-01-15T05:05:31;-1.90;99.90
37204;DHT22;23098;48.054;10.636;2024-01-15T05:07:56;-1.90;99.90
37204;DHT22;23098;48.054;10.636;2024-01-15T05:10:22;-1.90;99.90
37204;DHT22;23098;48.054;10.636;2024-01-15T05:12:47;-1.90;99.90
37204;DHT22;23098;48.054;10.636;2024-01-15T05:15:13;-1.90;99.90
37204;DHT22;23098;48.054;10.636;2024-01-15T05:17:38;-1.90;99.90
37204;DHT22;23098;48.054;10.636;2024-01-15T05:20:04;-1.90;99.90
37204;DHT22;23098;48.054;10.636;2024-01-15T05:22:30;-1.90;99.90
37204;DHT22;23098;48.054;10.636;2024-01-15T05:24:55;-1.90;99.90
37204;DHT22;23098;48.054;10.636;2024-01-15T05:27:21;-1.80;99.90
37204;DHT22;23098;48.054;10.636;2024-01-15T05:29:46;-1.80;99.90
37204;DHT22;23098;48.054;10.636;2024-01-15T05:32:13;-1.80;99.90
37204;DHT22;23098;48.054;10.636;2024-01-15T05:34:38;-1.80;99.90
37204;DHT22;23098;48.054;10.636;2024-01-15T05:37:04;-1.80;99.90
37204;DHT22;23098;48.054;10.636;2024-01-15T05:39:29;-1.70;99.90
37204;DHT22;23098;48.054;10.636;2024-01-15T05:41:55;-1.70;99.90
37204;DHT22;23098;48.054;10.636;2024-01-15T05:44:20;-1.70;99.90
37204;DHT22;23098;48.054;10.636;2024-01-15T05:46:46;-1.70;99.90
37204;DHT22;23098;48.054;10.636;2024-01-15T05:49:11;-1.70;99.90
37204;DHT22;23098;48.054;10.636;2024-01-15T05:51:37;-1.70;99.90
37204;DHT22;23098;48.054;10.636;2024-01-15T05:54:02;-1.60;99.90
37204;DHT22;23098;48.054;10.636;2024-01-15T05:56:28;-1.50;99.90
37204;DHT22;23098;48.054;10.636;2024-01-15T05:58:54;-1.60;99.90
37204;DHT22;23098;48.054;10.636;2024-01-15T06:01:19;-1.60;99.90
37204;DHT22;23098;48.054;10.636;2024-01-15T06:03:45;-1.60;99.90
37204;DHT22;23098;48.054;10.636;2024-01-15T06:06:10;-1.60;99.90
37204;DHT22;23098;48.054;10.636;2024-01-15T06:08:36;-1.60;99.90
37204;DHT22;23098;48.054;10.636;2024-01-15T06:11:01;-1.60;99.90
37204;DHT22;23098;48.054;10.636;2024-01-15T06:13:28;-1.60;99.90
37204;DHT22;23098;48.054;10.636;2024-01-15T06:15:54;-1.50;99.90
37204;DHT22;23098;48.054;10.636;2024-01-15T06:18:19;-1.50;99.90
37204;DHT22;23098;48.054;10.636;2024-01-15T06:20:44;-1.50;99.90
37204;DHT22;23098;48.054;10.636;2024-01-15T06:23:10;-1.50;99.90
37204;DHT22;23098;48.054;10.636;2024-01-15T06:25:35;-1.40;99.90
37204;DHT22;23098;48.054;10.636;2024-01-15T06:28:01;-1.40;99.90
37204;DHT22;23098;48.054;10.636;2024-01-15T06:30:26;-1.40;99.90
37204;DHT22;23098;48.054;10.636;2024-01-15T06:32:52;-1.40;99.90
37204;DHT22;23098;48.054;10.636;2024-01-15T06:35:17;-1.30;99.90
37204;DHT22;23098;48.054;10.636;2024-01-15T06:37:43;-1.30;99.90
37204;DHT22;23098;48.054;10.636;2024-01-15T06:40:09;-1.40;99.90
37204;DHT22;23098;48.054;10.636;2024-01-15T06:42:35;-1.30;99.90
37204;DHT22;23098;48.054;10.636;2024-01-15T06:45:00;-1.40;99.90
37204;DHT22;23098;48.054;10.636;2024-01-15T06:47:26;-1.40;99.90
37204;DHT22;23098;48.054;10.636;2024-01-15T06:49:51;-1.30;99.90
37204;DHT22;23098;48.054;10.636;2024-01-15T06:52:17;-1.30;99.90
37204;DHT22;23098;48.054;10.636;2024-01-15T06:54:43;-1.30;99.90
37204;DHT22;23098;48.054;10.636;2024-01-15T06:57:08;-1.30;99.90
37204;DHT22;23098;48.054;10.636;2024-01-15T06:59:34;-1.30;99.90
37204;DHT22;23098;48.054;10.636;2024-01-15T07:02:03;-1.30;99.90
37204;DHT22;23098;48.054;10.636;2024-01-15T07:04:28;-1.30;99.90
37204;DHT22;23098;48.054;10.636;2024-01-15T07:06:54;-1.30;99.90
37204;DHT22;23098;48.054;10.636;2024-01-15T07:09:20;-1.30;99.90
37204;DHT22;23098;48.054;10.636;2024-01-15T07:11:46;-1.30;99.90
37204;DHT22;23098;48.054;10.636;2024-01-15T07:14:12;-1.30;99.90
37204;DHT22;23098;48.054;10.636;2024-01-15T07:16:38;-1.20;99.90
37204;DHT22;23098;48.054;10.636;2024-01-15T07:19:04;-1.30;99.90
37204;DHT22;23098;48.054;10.636;2024-01-15T07:21:29;-1.20;99.90
37204;DHT22;23098;48.054;10.636;2024-01-15T07:23:55;-1.30;99.90
37204;DHT22;23098;48.054;10.636;2024-01-15T07:26:21;-1.20;99.90
37204;DHT22;23098;48.054;10.636;2024-01-15T07:28:46;-1.20;99.90
37204;DHT22;23098;48.054;10.636;2024-01-15T07:31:12;-1.20;99.90
37204;DHT22;23098;48.054;10.636;2024-01-15T07:33:37;-1.20;99.90
37204;DHT22;23098;48.054;10.636;2024-01-15T07:36:03;-1.20;99.90
37204;DHT22;23098;48.054;10.636;2024-01-15T07:38:29;-1.20;99.90
37204;DHT22;23098;48.054;10.636;2024-01-15T07:40:55;-1.20;99.90
37204;DHT22;23098;48.054;10.636;2024-01-15T07:43:21;-1.20;99.90
37204;DHT22;23098;48.054;10.636;2024-01-15T07:45:48;-1.20;99.90
37204;DHT22;23098;48.054;10.636;2024-01-15T07:48:13;-1.20;99.90
37204;DHT22;23098;48.054;10.636;2024-01-15T07:50:39;-1.20;99.90
37204;DHT22;23098;48.054;10.636;2024-01-15T07:53:05;-1.20;99.90
37204;DHT22;23098;48.054;10.636;2024-01-15T07:55:30;-1.10;99.90
37204;DHT22;23098;48.054;10.636;2024-01-15T07:57:56;-1.10;99.90
37204;DHT22;23098;48.054;10.636;2024-01-15T08:00:24;-1.10;99.90
37204;DHT22;23098;48.054;10.636;2024-01-15T08:02:50;-1.10;99.90
37204;DHT22;23098;48.054;10.636;2024-01-15T08:05:16;-1.10;99.90
37204;DHT22;23098;48.054;10.636;2024-01-15T08:07:42;-1.10;99.90
37204;DHT22;23098;48.054;10.636;2024-01-15T08:10:08;-1.10;99.90
37204;DHT22;23098;48.054;10.636;2024-01-15T08:12:33;-1.10;99.90
37204;DHT22;23098;48.054;10.636;2024-01-15T08:14:59;-1.10;99.90
37204;DHT22;23098;48.054;10.636;2024-01-15T08:17:24;-1.10;99.90
37204;DHT22;23098;48.054;10.636;2024-01-15T08:19:54;-1.10;99.90
37204;DHT22;23098;48.054;10.636;2024-01-15T08:22:19;-1.00;99.90
37204;DHT22;23098;48.054;10.636;2024-01-15T08:24:45;-1.00;99.90
37204;DHT22;23098;48.054;10.636;2024-01-15T08:27:11;-1.00;99.90
37204;DHT22;23098;48.054;10.636;2024-01-15T08:29:36;-1.00;99.90
37204;DHT22;23098;48.054;10.636;2024-01-15T08:32:02;-1.00;99.90
37204;DHT22;23098;48.054;10.636;2024-01-15T08:34:27;-1.00;99.90
37204;DHT22;23098;48.054;10.636;2024-01-15T08:36:53;-1.00;99.90
37204;DHT22;23098;48.054;10.636;2024-01-15T08:39:18;-0.90;99.90
37204;DHT22;23098;48.054;10.636;2024-01-15T08:41:45;-0.90;99.90
37204;DHT22;23098;48.054;10.636;2024-01-15T08:44:12;-0.90;99.90
37204;DHT22;23098;48.054;10.636;2024-01-15T08:46:37;-0.80;99.90
37204;DHT22;23098;48.054;10.636;2024-01-15T08:49:06;-0.80;99.90
37204;DHT22;23098;48.054;10.636;2024-01-15T08:51:34;-0.70;99.90
37204;DHT22;23098;48.054;10.636;2024-01-15T08:54:00;-0.70;99.90
37204;DHT22;23098;48.054;10.636;2024-01-15T08:56:25;-0.80;99.90
37204;DHT22;23098;48.054;10.636;2024-01-15T08:58:52;-0.70;99.90
37204;DHT22;23098;48.054;10.636;2024-01-15T09:01:18;-0.70;99.90
37204;DHT22;23098;48.054;10.636;2024-01-15T09:03:45;-0.70;99.90
37204;DHT22;23098;48.054;10.636;2024-01-15T09:06:13;-0.70;99.90
37204;DHT22;23098;48.054;10.636;2024-01-15T09:08:39;-0.70;99.90
37204;DHT22;23098;48.054;10.636;2024-01-15T09:11:04;-0.60;99.90
37204;DHT22;23098;48.054;10.636;2024-01-15T09:13:30;-0.60;99.90
37204;DHT22;23098;48.054;10.636;2024-01-15T09:15:56;-0.70;99.90
37204;DHT22;23098;48.054;10.636;2024-01-15T09:18:22;-0.70;99.90
37204;DHT22;23098;48.054;10.636;2024-01-15T09:20:53;-0.70;99.90
37204;DHT22;23098;48.054;10.636;2024-01-15T09:23:19;-0.60;99.90
37204;DHT22;23098;48.054;10.636;2024-01-15T09:25:44;-0.60;99.90
37204;DHT22;23098;48.054;10.636;2024-01-15T09:28:10;-0.60;99.90
37204;DHT22;23098;48.054;10.636;2024-01-15T09:30:35;-0.60;99.90
37204;DHT22;23098;48.054;10.636;2024-01-15T09:33:01;-0.60;99.90
37204;DHT22;23098;48.054;10.636;2024-01-15T09:35:27;-0.50;99.90
37204;DHT22;23098;48.054;10.636;2024-01-15T09:37:53;-0.50;99.90
37204;DHT22;23098;48.054;10.636;2024-01-15T09:40:20;-0.50;99.90
37204;DHT22;23098;48.054;10.636;2024-01-15T09:42:46;-0.50;99.90
37204;DHT22;23098;48.054;10.636;2024-01-15T09:45:12;-0.50;99.90
37204;DHT22;23098;48.054;10.636;2024-01-15T09:47:38;-0.50;99.90
37204;DHT22;23098;48.054;10.636;2024-01-15T09:50:06;-0.40;99.90
37204;DHT22;23098;48.054;10.636;2024-01-15T09:52:31;-0.40;99.90
37204;DHT22;23098;48.054;10.636;2024-01-15T09:55:02;-0.40;99.90
37204;DHT22;23098;48.054;10.636;2024-01-15T09:57:28;-0.40;99.90
37204;DHT22;23098;48.054;10.636;2024-01-15T09:59:54;-0.30;99.90
37204;DHT22;23098;48.054;10.636;2024-01-15T10:02:22;-0.30;99.90
37204;DHT22;23098;48.054;10.636;2024-01-15T10:04:47;-0.20;99.90
37204;DHT22;23098;48.054;10.636;2024-01-15T10:07:16;-0.20;99.90
37204;DHT22;23098;48.054;10.636;2024-01-15T10:09:44;-0.20;99.90
37204;DHT22;23098;48.054;10.636;2024-01-15T10:12:11;-0.10;99.90
37204;DHT22;23098;48.054;10.636;2024-01-15T10:14:37;-0.10;99.90
37204;DHT22;23098;48.054;10.636;2024-01-15T10:17:12;-0.10;99.90
37204;DHT22;23098;48.054;10.636;2024-01-15T10:19:38;-0.10;99.90
37204;DHT22;23098;48.054;10.636;2024-01-15T10:22:03;0.00;99.90
37204;DHT22;23098;48.054;10.636;2024-01-15T10:24:29;0.00;99.90
37204;DHT22;23098;48.054;10.636;2024-01-15T10:27:05;0.00;99.90
37204;DHT22;23098;48.054;10.636;2024-01-15T10:29:31;0.00;99.90
37204;DHT22;23098;48.054;10.636;2024-01-15T10:31:57;0.10;99.90
37204;DHT22;23098;48.054;10.636;2024-01-15T10:34:22;0.10;99.90
37204;DHT22;23098;48.054;10.636;2024-01-15T10:36:48;0.10;99.90
37204;DHT22;23098;48.054;10.636;2024-01-15T10:39:23;0.10;99.90
37204;DHT22;23098;48.054;10.636;2024-01-15T10:41:49;0.20;99.90
37204;DHT22;23098;48.054;10.636;2024-01-15T10:44:16;0.20;99.90
37204;DHT22;23098;48.054;10.636;2024-01-15T10:46:42;0.20;99.90
37204;DHT22;23098;48.054;10.636;2024-01-15T10:49:08;0.10;99.90
37204;DHT22;23098;48.054;10.636;2024-01-15T10:51:34;0.00;99.90
37204;DHT22;23098;48.054;10.636;2024-01-15T10:54:00;-0.10;99.90
37204;DHT22;23098;48.054;10.636;2024-01-15T10:56:27;-0.30;99.90
37204;DHT22;23098;48.054;10.636;2024-01-15T10:58:54;-0.40;99.90
37204;DHT22;23098;48.054;10.636;2024-01-15T11:01:21;-0.50;99.90
37204;DHT22;23098;48.054;10.636;2024-01-15T11:03:47;-0.50;99.90
37204;DHT22;23098;48.054;10.636;2024-01-15T11:06:16;-0.50;99.90
37204;DHT22;23098;48.054;10.636;2024-01-15T11:08:51;-0.20;99.90
37204;DHT22;23098;48.054;10.636;2024-01-15T11:11:17;0.30;99.90
37204;DHT22;23098;48.054;10.636;2024-01-15T11:13:43;0.40;99.90
37204;DHT22;23098;48.054;10.636;2024-01-15T11:16:13;0.60;99.90
37204;DHT22;23098;48.054;10.636;2024-01-15T11:21:24;0.90;99.00
37204;DHT22;23098;48.054;10.636;2024-01-15T11:26:35;1.10;98.80
37204;DHT22;23098;48.054;10.636;2024-01-15T11:29:08;1.10;98.30
37204;DHT22;23098;48.054;10.636;2024-01-15T11:34:10;0.90;98.20
37204;DHT22;23098;48.054;10.636;2024-01-15T11:39:40;1.00;98.40
37204;DHT22;23098;48.054;10.636;2024-01-15T11:42:08;1.10;98.10
37204;DHT22;23098;48.054;10.636;2024-01-15T11:44:34;1.00;98.50
37204;DHT22;23098;48.054;10.636;2024-01-15T11:47:01;1.00;98.60
37204;DHT22;23098;48.054;10.636;2024-01-15T11:52:19;0.90;99.30
37204;DHT22;23098;48.054;10.636;2024-01-15T11:55:10;1.00;99.40
37204;DHT22;23098;48.054;10.636;2024-01-15T11:57:49;1.20;98.90
37204;DHT22;23098;48.054;10.636;2024-01-15T12:00:15;1.40;99.00
37204;DHT22;23098;48.054;10.636;2024-01-15T12:02:43;1.30;98.80
37204;DHT22;23098;48.054;10.636;2024-01-15T12:05:13;1.30;98.70
37204;DHT22;23098;48.054;10.636;2024-01-15T12:07:40;1.40;99.00
37204;DHT22;23098;48.054;10.636;2024-01-15T12:10:13;1.80;98.60
37204;DHT22;23098;48.054;10.636;2024-01-15T12:12:58;1.70;98.40
37204;DHT22;23098;48.054;10.636;2024-01-15T12:15:26;1.70;98.30
37204;DHT22;23098;48.054;10.636;2024-01-15T12:17:54;1.60;98.20
37204;DHT22;23098;48.054;10.636;2024-01-15T12:20:20;1.50;98.40
37204;DHT22;23098;48.054;10.636;2024-01-15T12:22:45;1.70;98.50
37204;DHT22;23098;48.054;10.636;2024-01-15T12:25:11;1.90;97.90
37204;DHT22;23098;48.054;10.636;2024-01-15T12:27:38;2.20;97.40
37204;DHT22;23098;48.054;10.636;2024-01-15T12:30:05;2.30;96.90
37204;DHT22;23098;48.054;10.636;2024-01-15T12:32:31;2.20;96.80
37204;DHT22;23098;48.054;10.636;2024-01-15T12:34:56;2.10;96.90
37204;DHT22;23098;48.054;10.636;2024-01-15T12:37:22;2.10;96.50
37204;DHT22;23098;48.054;10.636;2024-01-15T12:39:47;1.70;96.80
37204;DHT22;23098;48.054;10.636;2024-01-15T12:42:16;1.90;97.80
37204;DHT22;23098;48.054;10.636;2024-01-15T12:44:43;1.90;97.10
37204;DHT22;23098;48.054;10.636;2024-01-15T12:47:08;1.80;96.50
37204;DHT22;23098;48.054;10.636;2024-01-15T12:49:36;1.80;96.90
37204;DHT22;23098;48.054;10.636;2024-01-15T12:52:03;1.80;96.70
37204;DHT22;23098;48.054;10.636;2024-01-15T12:54:28;1.60;96.60
37204;DHT22;23098;48.054;10.636;2024-01-15T12:56:54;1.40;97.50
37204;DHT22;23098;48.054;10.636;2024-01-15T12:59:19;1.50;97.50
37204;DHT22;23098;48.054;10.636;2024-01-15T13:01:46;1.90;97.10
37204;DHT22;23098;48.054;10.636;2024-01-15T13:04:12;2.00;97.10
37204;DHT22;23098;48.054;10.636;2024-01-15T13:06:45;1.90;97.20
37204;DHT22;23098;48.054;10.636;2024-01-15T13:09:11;2.00;97.50
37204;DHT22;23098;48.054;10.636;2024-01-15T13:11:37;2.10;97.60
37204;DHT22;23098;48.054;10.636;2024-01-15T13:14:03;2.20;96.80
37204;DHT22;23098;48.054;10.636;2024-01-15T13:16:29;1.80;96.60
37204;DHT22;23098;48.054;10.636;2024-01-15T13:18:55;1.70;97.10
37204;DHT22;23098;48.054;10.636;2024-01-15T13:21:21;1.50;97.50
37204;DHT22;23098;48.054;10.636;2024-01-15T13:23:47;1.30;97.10
37204;DHT22;23098;48.054;10.636;2024-01-15T13:26:12;1.20;97.50
37204;DHT22;23098;48.054;10.636;2024-01-15T13:28:38;1.20;97.70
37204;DHT22;23098;48.054;10.636;2024-01-15T13:31:04;1.20;97.80
37204;DHT22;23098;48.054;10.636;2024-01-15T13:33:30;1.20;97.10
37204;DHT22;23098;48.054;10.636;2024-01-15T13:35:55;1.30;97.30
37204;DHT22;23098;48.054;10.636;2024-01-15T13:38:22;1.20;97.60
37204;DHT22;23098;48.054;10.636;2024-01-15T13:40:49;1.00;97.90
37204;DHT22;23098;48.054;10.636;2024-01-15T13:43:15;0.90;97.70
37204;DHT22;23098;48.054;10.636;2024-01-15T13:45:43;0.90;98.20
37204;DHT22;23098;48.054;10.636;2024-01-15T13:48:09;0.90;98.80
37204;DHT22;23098;48.054;10.636;2024-01-15T13:50:35;0.90;99.10
37204;DHT22;23098;48.054;10.636;2024-01-15T13:53:02;0.90;98.80
37204;DHT22;23098;48.054;10.636;2024-01-15T13:55:27;0.90;98.40
37204;DHT22;23098;48.054;10.636;2024-01-15T13:57:54;0.80;98.70
37204;DHT22;23098;48.054;10.636;2024-01-15T14:00:20;0.80;99.00
37204;DHT22;23098;48.054;10.636;2024-01-15T14:02:46;0.70;98.60
37204;DHT22;23098;48.054;10.636;2024-01-15T14:05:12;0.70;98.90
37204;DHT22;23098;48.054;10.636;2024-01-15T14:07:41;0.70;98.20
37204;DHT22;23098;48.054;10.636;2024-01-15T14:10:09;0.70;98.40
37204;DHT22;23098;48.054;10.636;2024-01-15T14:12:35;0.60;98.30
37204;DHT22;23098;48.054;10.636;2024-01-15T14:15:02;0.60;98.40
37204;DHT22;23098;48.054;10.636;2024-01-15T14:17:28;0.60;98.60
37204;DHT22;23098;48.054;10.636;2024-01-15T14:19:54;0.60;98.70
37204;DHT22;23098;48.054;10.636;2024-01-15T14:22:19;0.60;98.60
37204;DHT22;23098;48.054;10.636;2024-01-15T14:24:45;0.60;98.80
37204;DHT22;23098;48.054;10.636;2024-01-15T14:27:10;0.60;98.60
37204;DHT22;23098;48.054;10.636;2024-01-15T14:29:35;0.60;99.00
37204;DHT22;23098;48.054;10.636;2024-01-15T14:32:02;0.60;98.80
37204;DHT22;23098;48.054;10.636;2024-01-15T14:34:28;0.60;99.20
37204;DHT22;23098;48.054;10.636;2024-01-15T14:36:53;0.60;99.00
37204;DHT22;23098;48.054;10.636;2024-01-15T14:39:20;0.60;99.20
37204;DHT22;23098;48.054;10.636;2024-01-15T14:41:46;0.50;99.10
37204;DHT22;23098;48.054;10.636;2024-01-15T14:44:12;0.50;99.20
37204;DHT22;23098;48.054;10.636;2024-01-15T14:46:38;0.50;99.60
37204;DHT22;23098;48.054;10.636;2024-01-15T14:49:04;0.50;99.30
37204;DHT22;23098;48.054;10.636;2024-01-15T14:51:30;0.50;99.50
37204;DHT22;23098;48.054;10.636;2024-01-15T14:53:55;0.40;99.30
37204;DHT22;23098;48.054;10.636;2024-01-15T14:56:21;0.40;99.50
37204;DHT22;23098;48.054;10.636;2024-01-15T14:58:46;0.40;99.90
37204;DHT22;23098;48.054;10.636;2024-01-15T15:01:12;0.30;99.90
37204;DHT22;23098;48.054;10.636;2024-01-15T15:03:38;0.30;99.90
37204;DHT22;23098;48.054;10.636;2024-01-15T15:06:04;0.20;99.90
37204;DHT22;23098;48.054;10.636;2024-01-15T15:08:30;0.20;99.90
37204;DHT22;23098;48.054;10.636;2024-01-15T15:10:55;0.20;99.90
37204;DHT22;23098;48.054;10.636;2024-01-15T15:13:22;0.20;99.90
37204;DHT22;23098;48.054;10.636;2024-01-15T15:15:48;0.20;99.90
37204;DHT22;23098;48.054;10.636;2024-01-15T15:18:14;0.20;99.90
37204;DHT22;23098;48.054;10.636;2024-01-15T15:20:39;0.30;99.90
37204;DHT22;23098;48.054;10.636;2024-01-15T15:23:05;0.20;99.90
37204;DHT22;23098;48.054;10.636;2024-01-15T15:25:34;0.30;99.90
37204;DHT22;23098;48.054;10.636;2024-01-15T15:28:00;0.20;99.90